This is the latest recevied weather packets stored in our database for station/object N3TJJ-11. If no packets are shown the sender has not sent any weather packets the latest 1 day(s).
| Time | Temp. | Humidity | Pressure | Rain* | Wind** | Luminosity | Snow |
|---|---|---|---|---|---|---|---|
| 1836274377 | 20.56° C | 62% | 1016.8 hPa | 0 mm | 3.13 m/s, 63° | - | - |
| 1836274226 | 20° C | 61% | 1016.8 hPa | 0 mm | 3.13 m/s, 74° | - | - |
| 1778058823 | 16.67° C | 79% | 1006 hPa | 0 mm | 4.92 m/s, 196° | - | - |
| 1778058702 | 16.67° C | 79% | 1006 hPa | 0 mm | 4.47 m/s, 205° | - | - |
| 1778058223 | 16.67° C | 78% | 1006.1 hPa | 0 mm | 4.47 m/s, 179° | - | - |
| 1778057982 | 16.67° C | 78% | 1006.1 hPa | 0 mm | 4.02 m/s, 205° | - | - |
| 1778057623 | 16.67° C | 78% | 1006 hPa | 0 mm | 4.02 m/s, 240° | - | - |
| 1778057262 | 16.67° C | 78% | 1006.2 hPa | 0 mm | 3.58 m/s, 207° | - | - |
| 1778057023 | 16.67° C | 78% | 1006.2 hPa | 0 mm | 3.58 m/s, 181° | - | - |
| 1778056542 | 16.67° C | 77% | 1006.2 hPa | 0 mm | 3.13 m/s, 178° | - | - |
| 1778056423 | 16.67° C | 77% | 1006.2 hPa | 0 mm | 3.13 m/s, 227° | - | - |
| 1778055822 | 16.67° C | 77% | 1006.2 hPa | 0 mm | 3.58 m/s, 171° | - | - |
| 1778055233 | 16.67° C | 76% | 1006.2 hPa | 0 mm | 3.58 m/s, 198° | - | - |
| 1778055102 | 16.67° C | 76% | 1006.3 hPa | 0 mm | 3.13 m/s, 229° | - | - |
| 1778054627 | 16.67° C | 76% | 1006.3 hPa | 0 mm | 3.13 m/s, 205° | - | - |
| 1778054382 | 17.22° C | 75% | 1006.2 hPa | 0 mm | 3.13 m/s, 232° | - | - |
| 1778054024 | 17.22° C | 75% | 1006.2 hPa | 0 mm | 3.13 m/s, 212° | - | - |
| 1778053662 | 17.22° C | 74% | 1006.4 hPa | 0 mm | 3.13 m/s, 221° | - | - |
| 1778053423 | 17.22° C | 74% | 1006.5 hPa | 0 mm | 3.13 m/s, 202° | - | - |
| 1778052942 | 17.22° C | 74% | 1006.4 hPa | 0 mm | 3.13 m/s, 243° | - | - |
| 1778052824 | 17.22° C | 74% | 1006.5 hPa | 0 mm | 2.68 m/s, 232° | - | - |
| 1778052222 | 17.22° C | 74% | 1006.5 hPa | 0 mm | 3.13 m/s, 182° | - | - |
| 1778051623 | 17.22° C | 73% | 1006.5 hPa | 0 mm | 3.13 m/s, 215° | - | - |
| 1778051502 | 17.22° C | 73% | 1006.5 hPa | 0 mm | 3.13 m/s, 242° | - | - |
| 1778051024 | 17.22° C | 73% | 1006.7 hPa | 0 mm | 2.68 m/s, 235° | - | - |
* Rain latest hour (hover to see other rain measurements)
** Current wind speed in m/s (hover to see current wind gust speed)